sensor_id;sensor_type;location;lat;lon;timestamp;P1;durP1;ratioP1;P2;durP2;ratioP2
54805;SDS011;62866;55.776;37.496;2022-12-29T00:01:37;0.77;;;0.73;;
54805;SDS011;62866;55.776;37.496;2022-12-29T00:04:03;4.32;;;1.00;;
54805;SDS011;62866;55.776;37.496;2022-12-29T00:06:30;1.05;;;0.80;;
54805;SDS011;62866;55.776;37.496;2022-12-29T00:08:56;2.25;;;0.80;;
54805;SDS011;62866;55.776;37.496;2022-12-29T00:11:23;1.73;;;0.63;;
54805;SDS011;62866;55.776;37.496;2022-12-29T00:13:50;2.80;;;0.90;;
54805;SDS011;62866;55.776;37.496;2022-12-29T00:16:35;2.10;;;0.90;;
54805;SDS011;62866;55.776;37.496;2022-12-29T00:19:02;0.95;;;0.70;;
54805;SDS011;62866;55.776;37.496;2022-12-29T00:21:28;0.20;;;0.20;;
54805;SDS011;62866;55.776;37.496;2022-12-29T00:24:15;1.88;;;0.80;;
54805;SDS011;62866;55.776;37.496;2022-12-29T00:29:47;0.47;;;0.30;;
54805;SDS011;62866;55.776;37.496;2022-12-29T00:32:32;1.65;;;0.90;;
54805;SDS011;62866;55.776;37.496;2022-12-29T00:35:37;1.58;;;0.65;;
54805;SDS011;62866;55.776;37.496;2022-12-29T00:38:05;2.33;;;0.70;;
54805;SDS011;62866;55.776;37.496;2022-12-29T00:40:51;1.20;;;0.50;;
54805;SDS011;62866;55.776;37.496;2022-12-29T00:43:35;4.57;;;0.68;;
54805;SDS011;62866;55.776;37.496;2022-12-29T00:46:18;0.90;;;0.57;;
54805;SDS011;62866;55.776;37.496;2022-12-29T00:48:44;1.27;;;0.73;;
54805;SDS011;62866;55.776;37.496;2022-12-29T00:51:28;1.08;;;0.43;;
54805;SDS011;62866;55.776;37.496;2022-12-29T00:53:53;0.50;;;0.45;;
54805;SDS011;62866;55.776;37.496;2022-12-29T00:56:19;0.77;;;0.63;;
54805;SDS011;62866;55.776;37.496;2022-12-29T00:58:45;0.57;;;0.45;;
54805;SDS011;62866;55.776;37.496;2022-12-29T01:01:10;2.88;;;0.80;;
54805;SDS011;62866;55.776;37.496;2022-12-29T01:03:36;0.47;;;0.45;;
54805;SDS011;62866;55.776;37.496;2022-12-29T01:06:04;1.17;;;0.60;;
54805;SDS011;62866;55.776;37.496;2022-12-29T01:08:34;1.25;;;0.40;;
54805;SDS011;62866;55.776;37.496;2022-12-29T01:11:05;2.50;;;0.60;;
54805;SDS011;62866;55.776;37.496;2022-12-29T01:13:32;1.55;;;0.60;;
54805;SDS011;62866;55.776;37.496;2022-12-29T01:15:58;0.73;;;0.45;;
54805;SDS011;62866;55.776;37.496;2022-12-29T01:18:24;3.35;;;0.55;;
54805;SDS011;62866;55.776;37.496;2022-12-29T01:20:58;1.63;;;0.45;;
54805;SDS011;62866;55.776;37.496;2022-12-29T01:23:25;3.08;;;1.00;;
54805;SDS011;62866;55.776;37.496;2022-12-29T01:25:50;0.88;;;0.70;;
54805;SDS011;62866;55.776;37.496;2022-12-29T01:28:16;1.80;;;0.45;;
54805;SDS011;62866;55.776;37.496;2022-12-29T01:30:41;1.77;;;0.93;;
54805;SDS011;62866;55.776;37.496;2022-12-29T01:33:07;1.17;;;0.88;;
54805;SDS011;62866;55.776;37.496;2022-12-29T01:35:32;2.10;;;0.90;;
54805;SDS011;62866;55.776;37.496;2022-12-29T01:37:58;1.42;;;0.82;;
54805;SDS011;62866;55.776;37.496;2022-12-29T01:40:23;4.25;;;0.98;;
54805;SDS011;62866;55.776;37.496;2022-12-29T01:42:49;1.10;;;0.90;;
54805;SDS011;62866;55.776;37.496;2022-12-29T01:45:16;1.25;;;0.70;;
54805;SDS011;62866;55.776;37.496;2022-12-29T01:47:58;0.30;;;0.30;;
54805;SDS011;62866;55.776;37.496;2022-12-29T01:50:33;1.38;;;0.60;;
54805;SDS011;62866;55.776;37.496;2022-12-29T01:58:07;1.42;;;0.63;;
54805;SDS011;62866;55.776;37.496;2022-12-29T02:00:36;0.75;;;0.43;;
54805;SDS011;62866;55.776;37.496;2022-12-29T02:03:02;1.17;;;0.80;;
54805;SDS011;62866;55.776;37.496;2022-12-29T02:05:32;2.20;;;0.65;;
54805;SDS011;62866;55.776;37.496;2022-12-29T02:08:18;2.75;;;0.70;;
54805;SDS011;62866;55.776;37.496;2022-12-29T02:10:47;1.10;;;1.00;;
54805;SDS011;62866;55.776;37.496;2022-12-29T02:13:16;0.50;;;0.40;;
54805;SDS011;62866;55.776;37.496;2022-12-29T02:15:52;2.38;;;0.77;;
54805;SDS011;62866;55.776;37.496;2022-12-29T02:24:37;1.05;;;0.50;;
54805;SDS011;62866;55.776;37.496;2022-12-29T02:27:15;5.80;;;0.70;;
54805;SDS011;62866;55.776;37.496;2022-12-29T02:30:32;2.13;;;0.63;;
54805;SDS011;62866;55.776;37.496;2022-12-29T02:33:03;1.08;;;0.77;;
54805;SDS011;62866;55.776;37.496;2022-12-29T02:38:31;0.80;;;0.52;;
54805;SDS011;62866;55.776;37.496;2022-12-29T02:40:59;0.20;;;0.20;;
54805;SDS011;62866;55.776;37.496;2022-12-29T02:51:25;3.35;;;0.80;;
54805;SDS011;62866;55.776;37.496;2022-12-29T02:53:55;0.22;;;0.22;;
54805;SDS011;62866;55.776;37.496;2022-12-29T02:56:40;1.33;;;0.45;;
54805;SDS011;62866;55.776;37.496;2022-12-29T02:59:06;6.80;;;0.93;;
54805;SDS011;62866;55.776;37.496;2022-12-29T03:07:20;1.48;;;0.45;;
54805;SDS011;62866;55.776;37.496;2022-12-29T03:13:01;0.50;;;0.50;;
54805;SDS011;62866;55.776;37.496;2022-12-29T03:23:41;2.97;;;0.95;;
54805;SDS011;62866;55.776;37.496;2022-12-29T03:26:12;2.00;;;0.60;;
54805;SDS011;62866;55.776;37.496;2022-12-29T03:29:13;0.60;;;0.60;;
54805;SDS011;62866;55.776;37.496;2022-12-29T03:31:33;1.45;;;0.80;;
54805;SDS011;62866;55.776;37.496;2022-12-29T03:34:02;2.60;;;1.00;;
54805;SDS011;62866;55.776;37.496;2022-12-29T03:36:32;1.90;;;0.88;;
54805;SDS011;62866;55.776;37.496;2022-12-29T03:39:08;1.55;;;0.90;;
54805;SDS011;62866;55.776;37.496;2022-12-29T03:41:37;1.95;;;0.80;;
54805;SDS011;62866;55.776;37.496;2022-12-29T03:44:05;1.63;;;0.85;;
54805;SDS011;62866;55.776;37.496;2022-12-29T03:46:32;1.05;;;0.50;;
54805;SDS011;62866;55.776;37.496;2022-12-29T03:48:57;2.92;;;0.68;;
54805;SDS011;62866;55.776;37.496;2022-12-29T03:51:23;4.18;;;1.20;;
54805;SDS011;62866;55.776;37.496;2022-12-29T03:53:49;1.08;;;0.63;;
54805;SDS011;62866;55.776;37.496;2022-12-29T03:56:14;3.08;;;1.02;;
54805;SDS011;62866;55.776;37.496;2022-12-29T03:58:40;1.00;;;0.70;;
54805;SDS011;62866;55.776;37.496;2022-12-29T04:01:05;1.77;;;1.00;;
54805;SDS011;62866;55.776;37.496;2022-12-29T04:03:31;1.45;;;0.60;;
54805;SDS011;62866;55.776;37.496;2022-12-29T04:05:57;0.57;;;0.50;;
54805;SDS011;62866;55.776;37.496;2022-12-29T04:08:22;1.38;;;0.95;;
54805;SDS011;62866;55.776;37.496;2022-12-29T04:10:48;2.47;;;0.50;;
54805;SDS011;62866;55.776;37.496;2022-12-29T04:13:14;2.00;;;0.93;;
54805;SDS011;62866;55.776;37.496;2022-12-29T04:15:40;0.30;;;0.30;;
54805;SDS011;62866;55.776;37.496;2022-12-29T04:18:07;1.65;;;0.95;;
54805;SDS011;62866;55.776;37.496;2022-12-29T04:20:33;3.28;;;0.93;;
54805;SDS011;62866;55.776;37.496;2022-12-29T04:23:17;0.90;;;0.65;;
54805;SDS011;62866;55.776;37.496;2022-12-29T04:25:44;0.60;;;0.55;;
54805;SDS011;62866;55.776;37.496;2022-12-29T04:28:14;2.38;;;1.00;;
54805;SDS011;62866;55.776;37.496;2022-12-29T04:30:40;1.30;;;1.17;;
54805;SDS011;62866;55.776;37.496;2022-12-29T04:33:07;2.17;;;1.20;;
54805;SDS011;62866;55.776;37.496;2022-12-29T04:35:32;1.38;;;0.80;;
54805;SDS011;62866;55.776;37.496;2022-12-29T04:37:58;2.88;;;1.00;;
54805;SDS011;62866;55.776;37.496;2022-12-29T04:40:23;1.73;;;1.08;;
54805;SDS011;62866;55.776;37.496;2022-12-29T04:42:49;1.27;;;0.93;;
54805;SDS011;62866;55.776;37.496;2022-12-29T04:45:15;1.42;;;0.80;;
54805;SDS011;62866;55.776;37.496;2022-12-29T04:47:41;1.90;;;1.05;;
54805;SDS011;62866;55.776;37.496;2022-12-29T04:50:07;3.88;;;1.40;;
54805;SDS011;62866;55.776;37.496;2022-12-29T04:52:33;5.88;;;0.85;;
54805;SDS011;62866;55.776;37.496;2022-12-29T04:54:59;2.00;;;1.23;;
54805;SDS011;62866;55.776;37.496;2022-12-29T04:57:24;4.78;;;1.20;;
54805;SDS011;62866;55.776;37.496;2022-12-29T04:59:50;1.45;;;0.98;;
54805;SDS011;62866;55.776;37.496;2022-12-29T05:02:16;1.20;;;0.80;;
54805;SDS011;62866;55.776;37.496;2022-12-29T05:04:42;3.38;;;0.70;;
54805;SDS011;62866;55.776;37.496;2022-12-29T05:07:07;3.22;;;1.00;;
54805;SDS011;62866;55.776;37.496;2022-12-29T05:09:33;2.10;;;0.98;;
54805;SDS011;62866;55.776;37.496;2022-12-29T05:11:59;2.25;;;1.00;;
54805;SDS011;62866;55.776;37.496;2022-12-29T05:14:24;1.92;;;1.20;;
54805;SDS011;62866;55.776;37.496;2022-12-29T05:16:50;1.65;;;0.80;;
54805;SDS011;62866;55.776;37.496;2022-12-29T05:19:15;3.63;;;1.30;;
54805;SDS011;62866;55.776;37.496;2022-12-29T05:21:41;1.58;;;1.17;;
54805;SDS011;62866;55.776;37.496;2022-12-29T05:24:07;3.10;;;1.15;;
54805;SDS011;62866;55.776;37.496;2022-12-29T05:26:33;2.95;;;0.98;;
54805;SDS011;62866;55.776;37.496;2022-12-29T05:28:58;3.42;;;1.25;;
54805;SDS011;62866;55.776;37.496;2022-12-29T05:31:25;1.83;;;0.93;;
54805;SDS011;62866;55.776;37.496;2022-12-29T05:33:51;1.27;;;0.88;;
54805;SDS011;62866;55.776;37.496;2022-12-29T05:36:16;3.60;;;1.15;;
54805;SDS011;62866;55.776;37.496;2022-12-29T05:38:42;2.22;;;1.17;;
54805;SDS011;62866;55.776;37.496;2022-12-29T05:41:08;2.03;;;1.05;;
54805;SDS011;62866;55.776;37.496;2022-12-29T05:43:34;3.03;;;1.15;;
54805;SDS011;62866;55.776;37.496;2022-12-29T05:45:59;3.67;;;1.10;;
54805;SDS011;62866;55.776;37.496;2022-12-29T05:48:25;1.60;;;0.45;;
54805;SDS011;62866;55.776;37.496;2022-12-29T05:50:51;2.45;;;1.50;;
54805;SDS011;62866;55.776;37.496;2022-12-29T05:53:17;2.80;;;1.20;;
54805;SDS011;62866;55.776;37.496;2022-12-29T05:55:44;1.80;;;0.80;;
54805;SDS011;62866;55.776;37.496;2022-12-29T05:58:11;1.67;;;1.05;;
54805;SDS011;62866;55.776;37.496;2022-12-29T06:00:37;1.42;;;1.02;;
54805;SDS011;62866;55.776;37.496;2022-12-29T06:03:03;2.08;;;1.05;;
54805;SDS011;62866;55.776;37.496;2022-12-29T06:05:29;1.52;;;1.13;;
54805;SDS011;62866;55.776;37.496;2022-12-29T06:07:54;2.38;;;1.20;;
54805;SDS011;62866;55.776;37.496;2022-12-29T06:10:20;4.07;;;1.77;;
54805;SDS011;62866;55.776;37.496;2022-12-29T06:12:46;3.50;;;1.90;;
54805;SDS011;62866;55.776;37.496;2022-12-29T06:15:12;2.47;;;1.55;;
54805;SDS011;62866;55.776;37.496;2022-12-29T06:17:37;4.15;;;1.85;;
54805;SDS011;62866;55.776;37.496;2022-12-29T06:20:04;8.55;;;2.88;;
54805;SDS011;62866;55.776;37.496;2022-12-29T06:22:30;4.47;;;1.75;;
54805;SDS011;62866;55.776;37.496;2022-12-29T06:24:55;4.47;;;1.27;;
54805;SDS011;62866;55.776;37.496;2022-12-29T06:27:21;5.07;;;1.50;;
54805;SDS011;62866;55.776;37.496;2022-12-29T06:29:47;4.10;;;1.63;;
54805;SDS011;62866;55.776;37.496;2022-12-29T06:32:12;4.25;;;1.67;;
54805;SDS011;62866;55.776;37.496;2022-12-29T06:34:38;2.17;;;1.45;;
54805;SDS011;62866;55.776;37.496;2022-12-29T06:37:03;2.40;;;1.08;;
54805;SDS011;62866;55.776;37.496;2022-12-29T06:39:29;1.63;;;1.17;;
54805;SDS011;62866;55.776;37.496;2022-12-29T06:41:55;1.92;;;1.10;;
54805;SDS011;62866;55.776;37.496;2022-12-29T06:44:20;2.50;;;1.27;;
54805;SDS011;62866;55.776;37.496;2022-12-29T06:46:46;1.23;;;0.93;;
54805;SDS011;62866;55.776;37.496;2022-12-29T06:49:13;3.10;;;1.50;;
54805;SDS011;62866;55.776;37.496;2022-12-29T06:51:39;1.67;;;1.02;;
54805;SDS011;62866;55.776;37.496;2022-12-29T06:54:04;2.85;;;1.42;;
54805;SDS011;62866;55.776;37.496;2022-12-29T06:56:30;2.70;;;1.15;;
54805;SDS011;62866;55.776;37.496;2022-12-29T06:58:56;1.83;;;1.10;;
54805;SDS011;62866;55.776;37.496;2022-12-29T07:01:21;3.83;;;1.73;;
54805;SDS011;62866;55.776;37.496;2022-12-29T07:03:47;4.22;;;1.50;;
54805;SDS011;62866;55.776;37.496;2022-12-29T07:06:13;3.65;;;1.58;;
54805;SDS011;62866;55.776;37.496;2022-12-29T07:08:38;1.95;;;1.38;;
54805;SDS011;62866;55.776;37.496;2022-12-29T07:11:04;2.38;;;1.48;;
54805;SDS011;62866;55.776;37.496;2022-12-29T07:13:30;3.05;;;1.27;;
54805;SDS011;62866;55.776;37.496;2022-12-29T07:15:56;2.17;;;1.27;;
54805;SDS011;62866;55.776;37.496;2022-12-29T07:18:21;2.17;;;1.25;;
54805;SDS011;62866;55.776;37.496;2022-12-29T07:20:47;2.10;;;1.27;;
54805;SDS011;62866;55.776;37.496;2022-12-29T07:23:13;2.88;;;1.38;;
54805;SDS011;62866;55.776;37.496;2022-12-29T07:25:38;1.95;;;1.00;;
54805;SDS011;62866;55.776;37.496;2022-12-29T07:28:06;2.13;;;1.05;;
54805;SDS011;62866;55.776;37.496;2022-12-29T07:30:32;2.72;;;1.55;;
54805;SDS011;62866;55.776;37.496;2022-12-29T07:32:58;2.47;;;1.52;;
54805;SDS011;62866;55.776;37.496;2022-12-29T07:35:23;1.80;;;0.82;;
54805;SDS011;62866;55.776;37.496;2022-12-29T07:37:49;4.07;;;1.45;;
54805;SDS011;62866;55.776;37.496;2022-12-29T07:40:15;3.53;;;1.60;;
54805;SDS011;62866;55.776;37.496;2022-12-29T07:42:41;4.53;;;1.10;;
54805;SDS011;62866;55.776;37.496;2022-12-29T07:45:06;2.40;;;1.50;;
54805;SDS011;62866;55.776;37.496;2022-12-29T07:47:34;1.48;;;0.88;;
54805;SDS011;62866;55.776;37.496;2022-12-29T07:49:59;3.78;;;1.25;;
54805;SDS011;62866;55.776;37.496;2022-12-29T07:52:25;3.17;;;1.33;;
54805;SDS011;62866;55.776;37.496;2022-12-29T07:54:50;3.25;;;1.65;;
54805;SDS011;62866;55.776;37.496;2022-12-29T07:57:16;3.20;;;1.52;;
54805;SDS011;62866;55.776;37.496;2022-12-29T07:59:42;2.97;;;1.50;;
54805;SDS011;62866;55.776;37.496;2022-12-29T08:02:11;3.42;;;1.83;;
54805;SDS011;62866;55.776;37.496;2022-12-29T08:04:36;5.55;;;1.77;;
54805;SDS011;62866;55.776;37.496;2022-12-29T08:07:02;2.53;;;1.25;;
54805;SDS011;62866;55.776;37.496;2022-12-29T08:09:27;4.82;;;1.60;;
54805;SDS011;62866;55.776;37.496;2022-12-29T08:11:53;4.05;;;1.80;;
54805;SDS011;62866;55.776;37.496;2022-12-29T08:14:19;1.38;;;1.02;;
54805;SDS011;62866;55.776;37.496;2022-12-29T08:16:45;3.28;;;1.48;;
54805;SDS011;62866;55.776;37.496;2022-12-29T08:19:11;2.15;;;1.48;;
54805;SDS011;62866;55.776;37.496;2022-12-29T08:21:37;4.30;;;2.00;;
54805;SDS011;62866;55.776;37.496;2022-12-29T08:24:03;5.32;;;1.98;;
54805;SDS011;62866;55.776;37.496;2022-12-29T08:26:29;2.65;;;1.40;;
54805;SDS011;62866;55.776;37.496;2022-12-29T08:28:55;1.13;;;0.77;;
54805;SDS011;62866;55.776;37.496;2022-12-29T08:31:21;3.88;;;1.48;;
54805;SDS011;62866;55.776;37.496;2022-12-29T08:33:47;4.13;;;2.38;;
54805;SDS011;62866;55.776;37.496;2022-12-29T08:36:13;5.57;;;2.30;;
54805;SDS011;62866;55.776;37.496;2022-12-29T08:38:39;2.60;;;1.63;;
54805;SDS011;62866;55.776;37.496;2022-12-29T08:41:04;6.85;;;2.30;;
54805;SDS011;62866;55.776;37.496;2022-12-29T08:43:30;5.00;;;2.45;;
54805;SDS011;62866;55.776;37.496;2022-12-29T08:45:59;3.92;;;2.05;;
54805;SDS011;62866;55.776;37.496;2022-12-29T08:48:25;5.60;;;2.55;;
54805;SDS011;62866;55.776;37.496;2022-12-29T08:50:51;4.90;;;2.30;;
54805;SDS011;62866;55.776;37.496;2022-12-29T08:53:17;8.73;;;3.20;;
54805;SDS011;62866;55.776;37.496;2022-12-29T08:55:46;3.95;;;2.45;;
54805;SDS011;62866;55.776;37.496;2022-12-29T08:58:13;5.57;;;2.90;;
54805;SDS011;62866;55.776;37.496;2022-12-29T09:00:40;7.78;;;3.08;;
54805;SDS011;62866;55.776;37.496;2022-12-29T09:03:06;4.63;;;2.22;;
54805;SDS011;62866;55.776;37.496;2022-12-29T09:05:32;8.10;;;3.00;;
54805;SDS011;62866;55.776;37.496;2022-12-29T09:07:57;6.28;;;2.83;;
54805;SDS011;62866;55.776;37.496;2022-12-29T09:10:23;5.90;;;3.20;;
54805;SDS011;62866;55.776;37.496;2022-12-29T09:12:48;3.47;;;2.42;;
54805;SDS011;62866;55.776;37.496;2022-12-29T09:15:14;7.15;;;3.38;;
54805;SDS011;62866;55.776;37.496;2022-12-29T09:17:40;5.53;;;3.33;;
54805;SDS011;62866;55.776;37.496;2022-12-29T09:20:10;3.95;;;2.38;;
54805;SDS011;62866;55.776;37.496;2022-12-29T09:22:39;5.93;;;3.22;;
54805;SDS011;62866;55.776;37.496;2022-12-29T09:25:06;6.10;;;3.28;;
54805;SDS011;62866;55.776;37.496;2022-12-29T09:27:35;6.60;;;3.13;;
54805;SDS011;62866;55.776;37.496;2022-12-29T09:30:01;12.07;;;3.67;;
54805;SDS011;62866;55.776;37.496;2022-12-29T09:32:31;2.42;;;1.45;;
54805;SDS011;62866;55.776;37.496;2022-12-29T09:34:57;9.25;;;4.00;;
54805;SDS011;62866;55.776;37.496;2022-12-29T09:37:22;9.30;;;3.40;;
54805;SDS011;62866;55.776;37.496;2022-12-29T09:39:50;7.53;;;3.60;;
54805;SDS011;62866;55.776;37.496;2022-12-29T09:42:23;8.05;;;3.58;;
54805;SDS011;62866;55.776;37.496;2022-12-29T09:47:32;10.10;;;4.45;;
54805;SDS011;62866;55.776;37.496;2022-12-29T09:52:36;7.70;;;3.90;;
54805;SDS011;62866;55.776;37.496;2022-12-29T09:55:13;8.85;;;3.70;;
54805;SDS011;62866;55.776;37.496;2022-12-29T09:57:46;8.65;;;3.92;;
54805;SDS011;62866;55.776;37.496;2022-12-29T10:00:36;7.20;;;3.95;;
54805;SDS011;62866;55.776;37.496;2022-12-29T10:03:20;7.75;;;4.45;;
54805;SDS011;62866;55.776;37.496;2022-12-29T10:06:08;8.57;;;3.75;;
54805;SDS011;62866;55.776;37.496;2022-12-29T10:08:44;6.00;;;3.53;;
54805;SDS011;62866;55.776;37.496;2022-12-29T10:11:23;6.78;;;3.78;;
54805;SDS011;62866;55.776;37.496;2022-12-29T10:14:28;9.48;;;3.50;;
54805;SDS011;62866;55.776;37.496;2022-12-29T10:23:25;6.20;;;2.38;;
54805;SDS011;62866;55.776;37.496;2022-12-29T10:25:58;8.70;;;3.58;;
54805;SDS011;62866;55.776;37.496;2022-12-29T10:31:01;8.57;;;3.10;;
54805;SDS011;62866;55.776;37.496;2022-12-29T10:33:35;6.15;;;3.22;;
54805;SDS011;62866;55.776;37.496;2022-12-29T10:39:21;9.40;;;3.67;;
54805;SDS011;62866;55.776;37.496;2022-12-29T10:44:40;6.05;;;2.60;;
54805;SDS011;62866;55.776;37.496;2022-12-29T10:47:11;8.15;;;4.20;;
54805;SDS011;62866;55.776;37.496;2022-12-29T10:49:42;3.67;;;2.35;;
54805;SDS011;62866;55.776;37.496;2022-12-29T10:52:10;6.60;;;1.92;;
54805;SDS011;62866;55.776;37.496;2022-12-29T10:54:45;5.43;;;2.97;;
54805;SDS011;62866;55.776;37.496;2022-12-29T10:57:37;11.13;;;3.53;;
54805;SDS011;62866;55.776;37.496;2022-12-29T11:00:10;9.27;;;2.97;;
54805;SDS011;62866;55.776;37.496;2022-12-29T11:07:59;7.68;;;3.20;;
54805;SDS011;62866;55.776;37.496;2022-12-29T11:10:41;5.20;;;2.60;;
54805;SDS011;62866;55.776;37.496;2022-12-29T11:14:10;6.65;;;3.13;;
54805;SDS011;62866;55.776;37.496;2022-12-29T11:16:13;5.32;;;3.17;;
54805;SDS011;62866;55.776;37.496;2022-12-29T11:18:39;11.77;;;3.75;;
54805;SDS011;62866;55.776;37.496;2022-12-29T11:21:23;8.00;;;3.47;;
54805;SDS011;62866;55.776;37.496;2022-12-29T11:23:57;7.68;;;4.03;;
54805;SDS011;62866;55.776;37.496;2022-12-29T11:26:43;6.45;;;2.22;;
54805;SDS011;62866;55.776;37.496;2022-12-29T11:31:44;11.35;;;4.65;;
54805;SDS011;62866;55.776;37.496;2022-12-29T11:34:34;9.45;;;4.63;;
54805;SDS011;62866;55.776;37.496;2022-12-29T11:37:02;4.80;;;1.67;;
54805;SDS011;62866;55.776;37.496;2022-12-29T11:42:13;12.88;;;4.43;;
54805;SDS011;62866;55.776;37.496;2022-12-29T11:44:46;7.97;;;3.43;;
54805;SDS011;62866;55.776;37.496;2022-12-29T11:47:19;6.68;;;3.17;;
54805;SDS011;62866;55.776;37.496;2022-12-29T11:50:01;6.20;;;3.28;;
54805;SDS011;62866;55.776;37.496;2022-12-29T11:52:31;10.85;;;4.43;;
54805;SDS011;62866;55.776;37.496;2022-12-29T11:55:00;7.20;;;3.97;;
54805;SDS011;62866;55.776;37.496;2022-12-29T11:57:28;4.18;;;2.15;;
54805;SDS011;62866;55.776;37.496;2022-12-29T11:59:56;6.32;;;3.63;;
54805;SDS011;62866;55.776;37.496;2022-12-29T12:07:42;9.57;;;4.00;;
54805;SDS011;62866;55.776;37.496;2022-12-29T12:10:12;7.95;;;3.80;;
54805;SDS011;62866;55.776;37.496;2022-12-29T12:12:55;8.25;;;3.67;;
54805;SDS011;62866;55.776;37.496;2022-12-29T12:15:34;8.57;;;3.67;;
54805;SDS011;62866;55.776;37.496;2022-12-29T12:20:49;8.98;;;3.92;;
54805;SDS011;62866;55.776;37.496;2022-12-29T12:23:56;7.40;;;3.30;;
54805;SDS011;62866;55.776;37.496;2022-12-29T12:29:16;6.60;;;3.22;;
54805;SDS011;62866;55.776;37.496;2022-12-29T12:31:57;8.32;;;3.70;;
54805;SDS011;62866;55.776;37.496;2022-12-29T12:34:33;11.23;;;4.55;;
54805;SDS011;62866;55.776;37.496;2022-12-29T12:37:06;10.07;;;4.80;;
54805;SDS011;62866;55.776;37.496;2022-12-29T12:48:30;9.55;;;4.38;;
54805;SDS011;62866;55.776;37.496;2022-12-29T12:51:42;11.10;;;4.40;;
54805;SDS011;62866;55.776;37.496;2022-12-29T13:00:14;7.70;;;3.72;;
54805;SDS011;62866;55.776;37.496;2022-12-29T13:08:21;6.40;;;3.50;;
54805;SDS011;62866;55.776;37.496;2022-12-29T13:11:13;7.03;;;3.75;;
54805;SDS011;62866;55.776;37.496;2022-12-29T13:16:19;8.45;;;2.58;;
54805;SDS011;62866;55.776;37.496;2022-12-29T13:32:44;6.75;;;1.50;;
54805;SDS011;62866;55.776;37.496;2022-12-29T13:35:26;17.77;;;4.95;;
54805;SDS011;62866;55.776;37.496;2022-12-29T13:41:35;9.02;;;4.13;;
54805;SDS011;62866;55.776;37.496;2022-12-29T13:43:56;11.70;;;3.80;;
54805;SDS011;62866;55.776;37.496;2022-12-29T13:46:24;7.63;;;3.40;;
54805;SDS011;62866;55.776;37.496;2022-12-29T13:48:58;10.85;;;4.72;;
54805;SDS011;62866;55.776;37.496;2022-12-29T13:51:29;4.07;;;1.90;;
54805;SDS011;62866;55.776;37.496;2022-12-29T13:59:52;7.57;;;3.10;;
54805;SDS011;62866;55.776;37.496;2022-12-29T14:05:02;7.20;;;3.00;;
54805;SDS011;62866;55.776;37.496;2022-12-29T14:07:30;8.48;;;3.75;;
54805;SDS011;62866;55.776;37.496;2022-12-29T14:10:03;6.53;;;2.90;;
54805;SDS011;62866;55.776;37.496;2022-12-29T14:12:35;4.82;;;2.53;;
54805;SDS011;62866;55.776;37.496;2022-12-29T14:17:33;8.25;;;3.08;;
54805;SDS011;62866;55.776;37.496;2022-12-29T14:19:59;10.07;;;4.88;;
54805;SDS011;62866;55.776;37.496;2022-12-29T14:22:26;6.13;;;2.55;;
54805;SDS011;62866;55.776;37.496;2022-12-29T14:24:53;12.07;;;4.65;;
54805;SDS011;62866;55.776;37.496;2022-12-29T14:29:45;10.68;;;3.65;;
54805;SDS011;62866;55.776;37.496;2022-12-29T14:35:31;10.82;;;4.60;;
54805;SDS011;62866;55.776;37.496;2022-12-29T14:38:21;7.57;;;3.75;;
54805;SDS011;62866;55.776;37.496;2022-12-29T14:40:48;10.48;;;3.63;;
54805;SDS011;62866;55.776;37.496;2022-12-29T14:43:20;5.70;;;3.33;;
54805;SDS011;62866;55.776;37.496;2022-12-29T14:46:00;12.13;;;4.00;;
54805;SDS011;62866;55.776;37.496;2022-12-29T14:50:58;9.70;;;4.15;;
54805;SDS011;62866;55.776;37.496;2022-12-29T14:53:41;12.18;;;4.03;;
54805;SDS011;62866;55.776;37.496;2022-12-29T14:56:17;9.18;;;4.30;;
54805;SDS011;62866;55.776;37.496;2022-12-29T14:58:50;11.55;;;5.15;;
54805;SDS011;62866;55.776;37.496;2022-12-29T15:01:32;11.88;;;5.35;;
54805;SDS011;62866;55.776;37.496;2022-12-29T15:04:13;11.60;;;4.65;;
54805;SDS011;62866;55.776;37.496;2022-12-29T15:06:40;12.80;;;3.47;;
54805;SDS011;62866;55.776;37.496;2022-12-29T15:09:17;9.45;;;4.00;;
54805;SDS011;62866;55.776;37.496;2022-12-29T15:11:51;11.48;;;4.57;;
54805;SDS011;62866;55.776;37.496;2022-12-29T15:14:29;11.80;;;4.25;;
54805;SDS011;62866;55.776;37.496;2022-12-29T15:17:01;9.75;;;3.95;;
54805;SDS011;62866;55.776;37.496;2022-12-29T15:19:34;10.95;;;3.92;;
54805;SDS011;62866;55.776;37.496;2022-12-29T15:22:01;12.45;;;4.07;;
54805;SDS011;62866;55.776;37.496;2022-12-29T15:24:27;13.27;;;4.10;;
54805;SDS011;62866;55.776;37.496;2022-12-29T15:26:54;10.00;;;3.83;;
54805;SDS011;62866;55.776;37.496;2022-12-29T15:29:40;12.55;;;4.05;;
54805;SDS011;62866;55.776;37.496;2022-12-29T15:32:23;9.18;;;3.40;;
54805;SDS011;62866;55.776;37.496;2022-12-29T15:34:52;10.90;;;4.05;;
54805;SDS011;62866;55.776;37.496;2022-12-29T15:39:45;10.68;;;4.50;;
54805;SDS011;62866;55.776;37.496;2022-12-29T15:42:39;10.55;;;4.13;;
54805;SDS011;62866;55.776;37.496;2022-12-29T15:45:16;6.50;;;3.03;;
54805;SDS011;62866;55.776;37.496;2022-12-29T15:47:42;12.60;;;4.70;;
54805;SDS011;62866;55.776;37.496;2022-12-29T15:52:46;10.55;;;4.20;;
54805;SDS011;62866;55.776;37.496;2022-12-29T15:55:31;8.13;;;3.17;;
54805;SDS011;62866;55.776;37.496;2022-12-29T15:58:04;16.95;;;4.75;;
54805;SDS011;62866;55.776;37.496;2022-12-29T16:00:35;13.40;;;4.88;;
54805;SDS011;62866;55.776;37.496;2022-12-29T16:03:04;4.43;;;1.13;;
54805;SDS011;62866;55.776;37.496;2022-12-29T16:05:35;14.68;;;4.85;;
54805;SDS011;62866;55.776;37.496;2022-12-29T16:08:20;10.23;;;3.47;;
54805;SDS011;62866;55.776;37.496;2022-12-29T16:10:57;12.27;;;4.22;;
54805;SDS011;62866;55.776;37.496;2022-12-29T16:13:30;15.10;;;5.22;;
54805;SDS011;62866;55.776;37.496;2022-12-29T16:15:59;12.07;;;4.80;;
54805;SDS011;62866;55.776;37.496;2022-12-29T16:18:28;14.18;;;5.10;;
54805;SDS011;62866;55.776;37.496;2022-12-29T16:20:59;10.93;;;4.15;;
54805;SDS011;62866;55.776;37.496;2022-12-29T16:23:26;16.40;;;5.00;;
54805;SDS011;62866;55.776;37.496;2022-12-29T16:25:54;15.57;;;5.32;;
54805;SDS011;62866;55.776;37.496;2022-12-29T16:28:29;11.95;;;4.55;;
54805;SDS011;62866;55.776;37.496;2022-12-29T16:31:05;15.68;;;4.88;;
54805;SDS011;62866;55.776;37.496;2022-12-29T16:36:32;4.47;;;2.20;;
54805;SDS011;62866;55.776;37.496;2022-12-29T16:39:41;8.25;;;2.58;;
54805;SDS011;62866;55.776;37.496;2022-12-29T16:41:54;9.50;;;2.85;;
54805;SDS011;62866;55.776;37.496;2022-12-29T16:49:35;15.85;;;5.00;;
54805;SDS011;62866;55.776;37.496;2022-12-29T16:54:59;7.90;;;3.83;;
54805;SDS011;62866;55.776;37.496;2022-12-29T16:57:30;11.27;;;4.05;;
54805;SDS011;62866;55.776;37.496;2022-12-29T17:00:16;12.02;;;4.60;;
54805;SDS011;62866;55.776;37.496;2022-12-29T17:02:44;19.02;;;7.63;;
54805;SDS011;62866;55.776;37.496;2022-12-29T17:05:13;16.30;;;7.03;;
54805;SDS011;62866;55.776;37.496;2022-12-29T17:07:40;12.32;;;4.75;;
54805;SDS011;62866;55.776;37.496;2022-12-29T17:10:05;7.60;;;3.65;;
54805;SDS011;62866;55.776;37.496;2022-12-29T17:12:32;6.30;;;4.07;;
54805;SDS011;62866;55.776;37.496;2022-12-29T17:15:00;20.65;;;7.82;;
54805;SDS011;62866;55.776;37.496;2022-12-29T17:19:57;11.18;;;4.38;;
54805;SDS011;62866;55.776;37.496;2022-12-29T17:22:28;16.30;;;5.45;;
54805;SDS011;62866;55.776;37.496;2022-12-29T17:24:55;11.73;;;5.78;;
54805;SDS011;62866;55.776;37.496;2022-12-29T17:29:51;16.08;;;5.57;;
54805;SDS011;62866;55.776;37.496;2022-12-29T17:32:20;7.28;;;3.70;;
54805;SDS011;62866;55.776;37.496;2022-12-29T17:34:48;27.13;;;8.32;;
54805;SDS011;62866;55.776;37.496;2022-12-29T17:37:25;15.13;;;5.32;;